x

Nantucket Sound (44020) Wave Buoy

7:50 - Wed 22nd Oct 2014 All times are EDT. -4 hours from GMT.

  • Sig Wave height 2.3ft
  • Swell Direction
  • Peak Period 4s
  • Average Period 4s
  • Wind
    22mph, 27mph gusts
  • Sea Temp 61°f
  • Air Temp 59°f
  • Sea Pressure 1011.7mb
  • Nantucket Sound
  • Nantucket Sound

More Historic Weather Station data

Upgrade to MSW Pro to gain access to the past 30 days of data for over 8000 Wavebouys and Weather Stations around the globe.

Join Pro

Comparision Forecast

View Surf forecast
   
mer. 10/22 7:50 2.5ft 4s 4s 22 27 mph 1011.7mb 61f 59f
6:50 2ft 4s 4s 20 25 mph 1011.9mb 61f 59f
5:50 2ft 3s 3s 16 18 mph 1012.5mb 60f 58f
4:50 1.6ft 3s 3s 18 20 mph 1012.5mb 60f 58f
3:50 1.3ft 6s 4s 16 20 mph 1012.2mb 60f 57f
2:50 1.3ft 6s 4s 11
mph
1012.3mb 61f 58f
1:50 1.3ft 6s 4s 9 11 mph 1012.8mb 61f 58f
12:50 1.6ft 4s 4s 9 11 mph 1013.1mb 61f 58f
mar. 10/21 11:50 2ft 5s 3s 13 16 mph 1013.4mb 61f 58f
10:50 2ft 3s 3s 16 20 mph 1013.4mb 61f 59f
9:50 1.6ft 5s 4s 16 18 mph 1012.8mb 61f 59f
8:50 1.3ft 4s 4s 11 16 mph 1012.3mb 61f 60f
7:50 1.6ft 3s 4s 11 13 mph 1012mb 61f 60f
6:50 1.6ft 4s 4s 16 18 mph 1012.2mb 61f 60f
5:50 1.6ft 3s 4s 16 20 mph 1012.2mb 61f 60f
4:50 1.6ft 3s 3s 13 18 mph 1012.1mb 61f 59f
3:50 1.6ft 3s 3s 16 20 mph 1012mb 61f 60f
2:50 2ft 3s 3s 18 20 mph 1012.2mb 61f 60f
1:50 2.5ft 4s 3s 18 20 mph 1012.4mb 61f 59f
12:50 2.5ft 3s 3s 22 27 mph 1012.5mb 61f 59f
11:50 3ft 4s 3s 22 27 mph 1013.6mb 61f 59f
10:50 3ft 3s 3s 27 31 mph 1013.6mb 61f 59f
9:50 2.5ft 4s 3s 22 29 mph 1014.3mb 61f 59f
8:50 2ft 4s 3s 18 22 mph 1014.7mb 61f 59f
7:50 1.3ft 3s 3s 20 25 mph 1014.5mb 61f 59f
6:50 1.3ft 3s 3s 13 16 mph 1014.9mb 61f 59f
5:50 1ft 3s 3s 18 20 mph 1014.9mb 61f 59f
4:50 0.7ft  -  3s 13 16 mph 1015.1mb 61f 60f
3:50 1ft 3s 3s 11
mph
1015.4mb 61f 60f
2:50 1ft 3s 3s 9 11 mph 1016.2mb 61f 61f
1:50 1.3ft 3s 3s 13 16 mph 1016.4mb 61f 61f
12:50 1.3ft 3s 3s 16 20 mph 1016.6mb 61f 60f
lun. 10/20 11:50 1.6ft 4s 3s 16 20 mph 1016.4mb 61f 60f
10:50 2ft 4s 3s 18 22 mph 1016.8mb 61f 59f
9:50 1.6ft 3s 3s 18 25 mph 1016.8mb 61f 58f
8:50 1.6ft 3s 3s 16 20 mph 1016.7mb 61f 57f
7:50 2ft 3s 3s 20 25 mph 1016.2mb 61f 57f
6:50 2.5ft 3s 3s 20 25 mph 1016mb 61f 56f
5:50 2.5ft 4s 3s 22 27 mph 1015.7mb 61f 55f
4:50 2.5ft 4s 3s 22 27 mph 1015.7mb 61f 55f
3:50 2.5ft 4s 3s 22 27 mph 1016mb 61f 54f
2:50 2ft 4s 3s 22 27 mph 1016mb 61f 53f
1:50 1.6ft 3s 3s 18 22 mph 1016.3mb 61f 52f
12:50 1.3ft 3s 3s 13 18 mph 1017.2mb 61f 50f
11:50 1.3ft 3s 3s 11 16 mph 1018.3mb 60f 49f
10:50 1.6ft 3s 3s 13 18 mph 1018.4mb 60f 47f
9:50 1.6ft 3s 3s 13 18 mph 1018.5mb 60f 46f
8:50 1.6ft 3s 3s 16 20 mph 1018.1mb 60f 46f
7:50 2ft 3s 3s 16 20 mph 1017.7mb 60f 45f
6:50 2ft 3s 3s 20 25 mph 1016.9mb 60f 45f
5:50 2.5ft 4s 3s 20 25 mph 1016mb 60f 45f
4:50 2.5ft 4s 3s 20 25 mph 1015.6mb 60f 45f
3:50 2.5ft 4s 4s 22 29 mph 1015.1mb 60f 46f
2:50 3ft 4s 4s 20 27 mph 1014.5mb 60f 47f
1:50 2.5ft 4s 4s 22 27 mph 1014.2mb 61f 47f
12:50 2.5ft 3s  -  22 27 mph 1013.6mb 61f 48f
dim. 10/19 11:50 2.5ft 4s 4s 18 25 mph 1013.2mb 61f 49f
10:50 3ft 4s 4s 20 27 mph 1012.7mb 61f 50f
9:50 3.5ft 4s 4s 22 29 mph 1012.2mb 62f 51f
8:50 3ft 4s 4s 27 31 mph 1011.5mb 62f 51f
7:50 3.5ft 4s 4s 27 34 mph 1010.7mb 62f 53f
6:50 2.5ft 4s 4s 22 29 mph 1009.7mb 62f 53f
5:50 2.5ft 4s 3s 22 29 mph 1008.7mb 62f 54f
4:50 2.5ft 3s 3s 22 27 mph 1008mb 62f 54f
3:50 2.5ft 4s 4s 18 25 mph 1007.6mb 62f 54f
2:50 2.5ft 4s 4s 20 22 mph 1007.3mb 62f 54f
1:50 2.5ft 4s 4s 20 27 mph 1007.1mb 62f 53f
12:50 3ft 4s 4s 18 22 mph 1006.7mb 62f 53f
11:50 3ft 4s 4s 20 27 mph 1006.3mb 62f 53f
10:50 2ft 3s 3s 20 25 mph 1006.8mb 62f 55f
9:50 1.6ft 3s 4s 16 20 mph 1006.8mb 62f 56f
8:50 2ft 3s 3s 16 18 mph 1006.7mb 62f 56f
7:50 2ft 3s 3s 18 22 mph 1006mb 62f 57f
6:50 1.6ft 3s 3s 20 22 mph 1004.9mb 62f 57f
5:50 1.6ft 3s 3s 18 20 mph 1004.2mb 63f 58f
4:50 2ft 3s 3s 16 18 mph 1003.6mb 63f 58f
3:50 1.6ft 3s 3s 18 22 mph 1003.1mb 63f 59f
2:50 2.5ft 3s 3s 18 22 mph 1003.1mb 63f 60f
1:50 2ft 4s 4s 18 20 mph 1002.9mb 63f 60f
12:50 2ft 4s 4s 16 20 mph 1002.8mb 63f 61f
sam. 10/18 11:50 2.5ft 4s 4s 18 20 mph 1002.4mb 63f 62f
10:50 2.5ft 4s 4s 18 22 mph 1002.1mb 63f 62f
9:50 2ft 4s 4s 16 18 mph 1001.8mb 63f 63f
8:50 2ft 4s 4s 20 25 mph 1001.2mb 63f 64f
7:50 2.5ft 3s 3s 22 25 mph 1000.5mb 63f 64f
6:50 1.6ft 3s 3s 20 22 mph 1000.1mb 64f 64f
5:50 1.6ft 3s 3s 16 20 mph 999.7mb 64f 64f
4:50 1.3ft 4s 3s 13 18 mph 999.5mb 64f 65f
3:50 1.3ft 3s 3s 13 16 mph 999.8mb 64f 65f
2:50 1.3ft 5s 4s 11 13 mph 1000.3mb 64f 65f
1:50 1.3ft 4s 4s 11 13 mph 1000.7mb 64f 64f